createdAt,value
2023-04-23T00:00:50.604Z,5.32
2023-04-23T00:05:55.440Z,4.53
2023-04-23T00:11:09.324Z,4.65
2023-04-23T00:16:08.785Z,4.93
2023-04-23T00:21:13.587Z,4.22
2023-04-23T00:26:22.920Z,3.85
2023-04-23T00:31:27.447Z,7.63
2023-04-23T00:36:26.986Z,7.60
2023-04-23T00:41:27.499Z,8.60
2023-04-23T00:46:29.197Z,8.07
2023-04-23T00:51:26.955Z,7.93
2023-04-23T00:56:27.219Z,6.95
2023-04-23T01:01:26.445Z,6.25
2023-04-23T01:06:25.694Z,5.65
2023-04-23T01:11:27.263Z,5.47
2023-04-23T01:16:26.924Z,6.20
2023-04-23T01:21:26.580Z,6.53
2023-04-23T01:26:26.031Z,5.57
2023-04-23T01:31:27.902Z,5.13
2023-04-23T01:36:28.185Z,5.18
2023-04-23T01:41:37.402Z,5.25
2023-04-23T01:46:39.122Z,4.45
2023-04-23T01:51:37.621Z,4.60
2023-04-23T01:56:37.910Z,5.07
2023-04-23T02:01:46.936Z,4.75
2023-04-23T02:06:47.601Z,4.72
2023-04-23T02:11:46.750Z,4.82
2023-04-23T02:16:45.632Z,5.82
2023-04-23T02:21:45.361Z,5.43
2023-04-23T02:26:44.782Z,4.85
2023-04-23T02:31:46.352Z,5.15
2023-04-23T02:36:45.925Z,4.82
2023-04-23T02:41:44.222Z,5.05
2023-04-23T02:46:46.685Z,4.97
2023-04-23T02:51:47.308Z,5.50
2023-04-23T02:56:49.310Z,4.95
2023-04-23T03:01:47.716Z,4.95
2023-04-23T03:06:48.087Z,5.00
2023-04-23T03:11:54.210Z,5.00
2023-04-23T03:16:53.972Z,5.25
2023-04-23T03:21:55.041Z,5.43
2023-04-23T03:26:55.156Z,4.40
2023-04-23T03:31:56.168Z,4.28
2023-04-23T03:36:55.835Z,4.93
2023-04-23T03:42:03.004Z,4.80
2023-04-23T03:47:04.069Z,4.93
2023-04-23T03:52:04.550Z,4.70
2023-04-23T03:57:05.856Z,5.22
2023-04-23T04:02:15.313Z,5.95
2023-04-23T04:07:16.332Z,7.07
2023-04-23T04:12:17.768Z,5.45
2023-04-23T04:17:18.166Z,6.05
2023-04-23T04:22:20.141Z,5.40
2023-04-23T04:27:19.431Z,5.55
2023-04-23T04:32:18.201Z,6.90
2023-04-23T04:37:23.248Z,6.15
2023-04-23T04:42:25.900Z,6.75
2023-04-23T04:47:24.607Z,8.00
2023-04-23T04:52:22.843Z,6.28
2023-04-23T04:57:23.019Z,6.20
2023-04-23T05:02:23.655Z,6.03
2023-04-23T05:07:24.734Z,5.72
2023-04-23T05:12:33.893Z,5.25
2023-04-23T05:17:35.564Z,5.55
2023-04-23T05:22:36.056Z,5.32
2023-04-23T05:27:39.874Z,5.40
2023-04-23T05:32:41.215Z,5.43
2023-04-23T05:37:39.277Z,5.32
2023-04-23T05:42:38.595Z,4.25
2023-04-23T05:47:37.574Z,4.18
2023-04-23T05:52:37.800Z,3.90
2023-04-23T05:57:39.598Z,4.35
2023-04-23T06:02:42.749Z,4.53
2023-04-23T06:07:42.220Z,3.33
2023-04-23T06:12:42.341Z,4.25
2023-04-23T06:17:44.969Z,3.95
2023-04-23T06:22:42.867Z,3.40
2023-04-23T06:27:40.879Z,3.25
2023-04-23T06:32:47.553Z,3.15
2023-04-23T06:37:45.147Z,4.20
2023-04-23T06:42:45.663Z,4.47
2023-04-23T06:48:04.194Z,4.03
2023-04-23T06:53:12.726Z,3.95
2023-04-23T06:58:16.593Z,4.05
2023-04-23T07:08:16.643Z,3.90
2023-04-23T07:13:16.033Z,3.75
2023-04-23T07:18:23.341Z,3.25
2023-04-23T07:23:22.765Z,3.55
2023-04-23T07:28:20.323Z,3.70
2023-04-23T07:33:19.371Z,2.80
2023-04-23T07:38:17.966Z,6.05
2023-04-23T07:43:17.047Z,2.65
2023-04-23T07:48:19.384Z,3.30
2023-04-23T07:53:30.800Z,2.88
2023-04-23T07:58:30.348Z,2.20
2023-04-23T08:03:29.396Z,3.50
2023-04-23T08:08:28.285Z,3.38
2023-04-23T08:13:26.639Z,2.80
2023-04-23T08:18:27.962Z,3.45
2023-04-23T08:23:30.596Z,2.42
2023-04-23T08:28:35.009Z,2.42
2023-04-23T08:33:34.045Z,2.53
2023-04-23T08:38:32.592Z,2.47
2023-04-23T08:43:45.131Z,2.97
2023-04-23T08:48:47.624Z,3.42
2023-04-23T08:53:46.936Z,3.20
2023-04-23T08:58:50.714Z,2.97
2023-04-23T09:08:48.712Z,2.85
2023-04-23T09:13:52.784Z,3.00
2023-04-23T09:19:03.307Z,2.30
2023-04-23T09:29:38.468Z,2.20
2023-04-23T09:34:38.463Z,3.40
2023-04-23T09:39:37.303Z,6.15
2023-04-23T09:44:38.256Z,3.80
2023-04-23T09:49:50.047Z,9.82
2023-04-23T09:54:51.064Z,2.65
2023-04-23T09:59:57.380Z,3.00
2023-04-23T10:10:23.046Z,2.50
2023-04-23T10:15:31.830Z,2.88
2023-04-23T10:20:49.577Z,2.42
2023-04-23T10:25:50.036Z,3.35
2023-04-23T10:37:37.473Z,2.90
2023-04-23T10:43:01.443Z,2.83
2023-04-23T10:48:00.973Z,2.30
2023-04-23T10:53:52.746Z,2.40
2023-04-23T10:58:57.740Z,2.72
2023-04-23T11:03:57.061Z,3.42
2023-04-23T11:08:56.944Z,2.80
2023-04-23T11:13:55.611Z,3.08
2023-04-23T11:19:20.791Z,2.40
2023-04-23T11:24:34.474Z,2.58
2023-04-23T11:29:43.045Z,2.47
2023-04-23T11:34:53.306Z,2.58
2023-04-23T11:39:51.838Z,2.60
2023-04-23T11:45:02.650Z,2.47
2023-04-23T11:50:02.218Z,2.85
2023-04-23T11:55:06.694Z,2.78
2023-04-23T12:00:15.664Z,2.40
2023-04-23T12:05:20.292Z,2.60
2023-04-23T12:10:25.390Z,2.28
2023-04-23T12:15:23.596Z,2.38
2023-04-23T12:20:23.914Z,2.38
2023-04-23T12:25:25.115Z,2.80
2023-04-23T12:30:24.229Z,2.30
2023-04-23T12:35:45.121Z,2.33
2023-04-23T12:40:49.185Z,3.67
2023-04-23T12:45:53.141Z,2.25
2023-04-23T12:50:52.261Z,1.92
2023-04-23T12:55:50.432Z,2.40
2023-04-23T13:00:51.765Z,2.15
2023-04-23T13:05:52.063Z,2.45
2023-04-23T13:10:54.010Z,2.42
2023-04-23T13:16:03.823Z,2.80
2023-04-23T13:21:05.150Z,2.30
2023-04-23T13:26:09.353Z,2.45
2023-04-23T13:31:21.434Z,2.50
2023-04-23T13:36:24.498Z,1.90
2023-04-23T13:41:24.006Z,2.38
2023-04-23T13:46:42.661Z,2.15
2023-04-23T13:51:54.470Z,1.83
2023-04-23T13:56:56.652Z,2.30
2023-04-23T14:02:05.157Z,2.10
2023-04-23T14:07:19.942Z,2.30
2023-04-23T14:12:20.223Z,2.45
2023-04-23T14:17:24.069Z,2.13
2023-04-23T14:22:24.509Z,2.72
2023-04-23T14:27:24.135Z,2.33
2023-04-23T14:32:23.976Z,2.55
2023-04-23T14:37:24.064Z,2.80
2023-04-23T14:42:24.687Z,2.90
2023-04-23T14:47:27.440Z,2.67
2023-04-23T14:52:28.995Z,2.13
2023-04-23T14:57:29.313Z,2.17
2023-04-23T15:02:30.686Z,1.60
2023-04-23T15:07:34.279Z,2.13
2023-04-23T15:12:53.362Z,1.98
2023-04-23T15:17:52.941Z,2.65
2023-04-23T15:23:05.926Z,2.80
2023-04-23T15:28:05.816Z,2.50
2023-04-23T15:33:05.184Z,1.90
2023-04-23T15:38:18.962Z,2.30
2023-04-23T15:43:19.490Z,2.65
2023-04-23T15:48:21.940Z,2.22
2023-04-23T15:53:23.159Z,3.60
2023-04-23T15:58:25.869Z,2.83
2023-04-23T16:03:25.915Z,2.45
2023-04-23T16:08:25.956Z,2.50
2023-04-23T16:13:29.083Z,5.30
2023-04-23T16:18:28.916Z,4.93
2023-04-23T16:23:27.986Z,3.65
2023-04-23T16:28:27.195Z,3.70
2023-04-23T16:33:28.862Z,3.45
2023-04-23T16:38:28.158Z,2.93
2023-04-23T16:43:27.649Z,3.13
2023-04-23T16:48:26.388Z,3.30
2023-04-23T16:53:30.023Z,3.10
2023-04-23T16:58:33.280Z,3.35
2023-04-23T17:03:33.956Z,3.73
2023-04-23T17:08:37.053Z,3.33
2023-04-23T17:13:36.495Z,3.17
2023-04-23T17:18:39.170Z,3.65
2023-04-23T17:23:38.985Z,3.50
2023-04-23T17:28:43.357Z,3.10
2023-04-23T17:33:49.782Z,2.97
2023-04-23T17:38:51.885Z,3.38
2023-04-23T17:44:02.934Z,3.22
2023-04-23T17:49:07.964Z,2.95
2023-04-23T17:54:21.089Z,3.03
2023-04-23T18:05:10.380Z,3.70
2023-04-23T18:10:09.322Z,3.38
2023-04-23T18:15:19.793Z,3.45
2023-04-23T18:20:29.536Z,3.33
2023-04-23T18:25:37.036Z,3.63
2023-04-23T18:30:36.408Z,3.92
2023-04-23T18:35:43.230Z,3.13
2023-04-23T18:40:42.184Z,3.95
2023-04-23T18:45:41.827Z,3.20
2023-04-23T18:55:51.506Z,3.72
2023-04-23T19:00:50.293Z,3.80
2023-04-23T19:05:50.776Z,3.60
2023-04-23T19:10:52.106Z,3.15
2023-04-23T19:15:53.970Z,3.05
2023-04-23T19:21:04.662Z,3.83
2023-04-23T19:26:15.970Z,3.15
2023-04-23T19:32:01.573Z,2.80
2023-04-23T19:37:19.413Z,2.60
2023-04-23T19:42:42.784Z,2.80
2023-04-23T19:53:14.513Z,3.45
2023-04-23T19:58:16.124Z,2.75
2023-04-23T20:03:15.871Z,2.78
2023-04-23T20:08:29.332Z,2.78
2023-04-23T20:13:29.431Z,2.38
2023-04-23T20:18:32.546Z,3.67
2023-04-23T20:23:36.372Z,2.92
2023-04-23T20:28:34.784Z,3.20
2023-04-23T20:33:36.186Z,3.40
2023-04-23T20:38:38.260Z,3.33
2023-04-23T20:43:40.026Z,3.17
2023-04-23T20:49:09.107Z,3.15
2023-04-23T20:54:08.146Z,2.75
2023-04-23T20:59:06.404Z,3.53
2023-04-23T21:04:13.858Z,3.15
2023-04-23T21:09:13.195Z,3.58
2023-04-23T21:14:11.537Z,2.72
2023-04-23T21:19:10.321Z,2.97
2023-04-23T21:24:10.976Z,2.65
2023-04-23T21:29:10.967Z,2.65
2023-04-23T21:34:10.701Z,2.92
2023-04-23T21:39:13.224Z,3.10
2023-04-23T21:44:13.943Z,3.85
2023-04-23T21:49:13.453Z,3.13
2023-04-23T21:54:12.253Z,2.80
2023-04-23T21:59:19.573Z,3.00
2023-04-23T22:04:22.559Z,3.00
2023-04-23T22:09:22.735Z,2.43
2023-04-23T22:14:21.734Z,3.00
2023-04-23T22:19:21.566Z,2.85
2023-04-23T22:24:23.306Z,2.80
2023-04-23T22:29:22.297Z,3.00
2023-04-23T22:34:21.754Z,2.95
2023-04-23T22:39:21.547Z,2.92
2023-04-23T22:44:26.774Z,3.10
2023-04-23T22:49:27.105Z,2.80
2023-04-23T22:54:35.374Z,3.35
2023-04-23T22:59:40.241Z,2.92
2023-04-23T23:04:39.666Z,2.75
2023-04-23T23:09:41.566Z,2.88
2023-04-23T23:14:40.981Z,2.80
2023-04-23T23:19:39.649Z,3.03
2023-04-23T23:24:42.130Z,3.05
2023-04-23T23:29:43.311Z,3.28
2023-04-23T23:34:42.091Z,3.25
2023-04-23T23:39:41.918Z,3.53
2023-04-23T23:44:39.831Z,4.07
2023-04-23T23:49:42.819Z,3.42
2023-04-23T23:54:44.710Z,2.90
2023-04-23T23:59:43.211Z,3.38
